Time;durP1;ratioP1;P1;durP2;ratioP2;P2;SDS_P1;SDS_P2;PMS_P1;PMS_P2;Temp;Humidity;BMP_temperature;BMP_pressure;BME280_temperature;BME280_humidity;BME280_pressure;Samples;Min_cycle;Max_cycle;Signal;HPM_P1;HPM_P2
2023/05/04 00:00:12;;;;;;;7.68;3.42;;;;;;;5.31;100.00;102641.41;5024155;28;20037;-73
2023/05/04 00:02:37;;;;;;;7.15;3.80;;;;;;;5.28;100.00;102629.13;5026781;28;20029;-73
2023/05/04 00:05:04;;;;;;;6.90;3.72;;;;;;;5.27;100.00;102635.25;5024963;28;20037;-73
2023/05/04 00:07:30;;;;;;;6.40;3.78;;;;;;;5.25;100.00;102622.97;5025780;28;20048;-73
2023/05/04 00:09:56;;;;;;;7.82;3.63;;;;;;;5.24;100.00;102623.84;5024677;28;20033;-73
2023/05/04 00:12:21;;;;;;;6.43;3.35;;;;;;;5.22;100.00;102621.19;5026039;28;20041;-72
2023/05/04 00:14:47;;;;;;;6.55;3.95;;;;;;;5.23;100.00;102622.09;5024528;28;20186;-73
2023/05/04 00:17:13;;;;;;;5.80;3.55;;;;;;;5.22;100.00;102618.56;5026683;28;21126;-73
2023/05/04 00:19:40;;;;;;;6.15;3.45;;;;;;;5.20;100.00;102614.19;5028146;28;20037;-73
2023/05/04 00:22:06;;;;;;;8.57;4.20;;;;;;;5.20;100.00;102608.94;5028498;28;20037;-73
2023/05/04 00:24:32;;;;;;;5.80;3.33;;;;;;;5.18;100.00;102611.56;5026754;28;20440;-73
2023/05/04 00:26:58;;;;;;;7.57;3.85;;;;;;;5.17;100.00;102609.78;5030454;28;20107;-73
2023/05/04 00:29:23;;;;;;;4.97;3.33;;;;;;;5.16;100.00;102611.56;5029847;28;20756;-73
2023/05/04 00:31:49;;;;;;;8.18;3.97;;;;;;;5.15;100.00;102606.28;5030389;28;20037;-73
2023/05/04 00:34:15;;;;;;;6.65;3.15;;;;;;;5.13;100.00;102602.78;5030028;28;20037;-73
2023/05/04 00:36:41;;;;;;;7.47;3.60;;;;;;;5.13;100.00;102608.03;5028894;28;20040;-72
2023/05/04 00:39:07;;;;;;;9.63;3.60;;;;;;;5.11;100.00;102608.00;5026534;28;20056;-73
2023/05/04 00:41:32;;;;;;;8.93;3.45;;;;;;;5.12;100.00;102608.91;5030305;28;20231;-73
2023/05/04 00:43:58;;;;;;;5.22;3.65;;;;;;;5.11;100.00;102601.88;5030329;28;21898;-73
2023/05/04 00:46:24;;;;;;;7.07;3.55;;;;;;;5.10;100.00;102598.38;5028676;28;20041;-73
2023/05/04 00:48:51;;;;;;;8.65;3.47;;;;;;;5.10;100.00;102601.00;5028698;28;20099;-73
2023/05/04 00:51:19;;;;;;;7.75;4.10;;;;;;;5.10;100.00;102597.50;5025742;28;20040;-73
2023/05/04 00:53:44;;;;;;;4.63;3.45;;;;;;;5.10;100.00;102597.50;5028385;28;20047;-73
2023/05/04 00:56:10;;;;;;;4.22;2.83;;;;;;;5.08;100.00;102592.25;5029013;28;20049;-73
2023/05/04 00:58:36;;;;;;;9.50;3.70;;;;;;;5.08;100.00;102588.75;5027992;28;20484;-73
2023/05/04 01:01:02;;;;;;;4.95;3.40;;;;;;;5.06;100.00;102580.00;5028443;28;20043;-73
2023/05/04 01:03:28;;;;;;;6.93;3.60;;;;;;;5.04;100.00;102582.59;5026372;28;20044;-72
2023/05/04 01:06:06;;;;;;;10.13;4.10;;;;;;;5.02;100.00;102574.69;5025673;28;21562;-73
2023/05/04 01:08:36;;;;;;;6.57;3.28;;;;;;;5.01;100.00;102578.19;5025821;28;20040;-72
2023/05/04 01:11:07;;;;;;;8.23;4.07;;;;;;;5.01;100.00;102569.47;5010299;28;20940;-72
2023/05/04 01:13:34;;;;;;;7.93;3.78;;;;;;;4.99;100.00;102564.19;5023390;28;20033;-73
2023/05/04 01:16:00;;;;;;;7.35;3.92;;;;;;;5.00;100.00;102565.06;5027000;28;20040;-73
2023/05/04 01:18:25;;;;;;;11.23;4.30;;;;;;;4.99;100.00;102556.31;5025371;28;20033;-73
2023/05/04 01:20:51;;;;;;;7.35;4.03;;;;;;;4.99;100.00;102553.69;5028751;28;20037;-73
2023/05/04 01:23:16;;;;;;;8.63;4.20;;;;;;;4.97;100.00;102555.41;5026820;28;20162;-73
2023/05/04 01:25:52;;;;;;;7.38;3.90;;;;;;;4.98;100.00;102551.06;5029116;28;20040;-73
2023/05/04 01:28:22;;;;;;;10.13;4.55;;;;;;;4.96;100.00;102556.28;5028880;28;20061;-73
2023/05/04 01:30:50;;;;;;;8.25;4.13;;;;;;;4.97;100.00;102554.56;5041340;28;20040;-73
2023/05/04 01:33:17;;;;;;;10.35;4.63;;;;;;;4.96;100.00;102553.66;5027905;28;20064;-73
2023/05/04 01:35:43;;;;;;;8.35;4.05;;;;;;;4.96;100.00;102547.56;5027556;28;20507;-73
2023/05/04 01:38:09;;;;;;;8.85;4.40;;;;;;;4.95;100.00;102549.28;5024808;28;20040;-73
2023/05/04 01:40:34;;;;;;;9.15;4.35;;;;;;;4.95;100.00;102551.06;5026930;28;20041;-73
2023/05/04 01:43:00;;;;;;;8.93;4.50;;;;;;;4.94;100.00;102547.53;5028816;28;20037;-73
2023/05/04 01:45:25;;;;;;;8.77;4.43;;;;;;;4.94;100.00;102538.78;5028893;28;20040;-73
2023/05/04 01:47:51;;;;;;;11.13;4.75;;;;;;;4.91;100.00;102544.91;5028074;28;20037;-73
2023/05/04 01:50:16;;;;;;;7.35;4.13;;;;;;;4.92;100.00;102544.03;5027754;28;20139;-73
2023/05/04 01:52:42;;;;;;;9.65;4.28;;;;;;;4.89;100.00;102536.13;5027072;28;20036;-73
2023/05/04 01:55:08;;;;;;;8.75;3.92;;;;;;;4.89;100.00;102552.78;5028578;28;20174;-73
2023/05/04 01:57:33;;;;;;;6.97;3.90;;;;;;;4.89;100.00;102547.53;5029503;28;20154;-73
2023/05/04 01:59:59;;;;;;;8.70;3.80;;;;;;;4.88;100.00;102540.53;5027722;28;20034;-74
2023/05/04 02:02:24;;;;;;;8.65;4.53;;;;;;;4.87;100.00;102535.25;5028373;28;20668;-73
2023/05/04 02:04:50;;;;;;;7.20;3.90;;;;;;;4.85;100.00;102535.22;5026032;28;20072;-73
2023/05/04 02:07:15;;;;;;;7.88;3.85;;;;;;;4.86;100.00;102546.63;5024815;28;20091;-73
2023/05/04 02:09:41;;;;;;;6.65;3.80;;;;;;;4.86;100.00;102541.38;5025734;28;20037;-73
2023/05/04 02:12:07;;;;;;;12.10;4.20;;;;;;;4.87;100.00;102538.78;5026434;28;20098;-74
2023/05/04 02:14:32;;;;;;;7.65;3.75;;;;;;;4.86;100.00;102536.97;5027779;28;20488;-73
2023/05/04 02:16:58;;;;;;;7.10;4.00;;;;;;;4.85;100.00;102534.38;5024840;28;20547;-73
2023/05/04 02:19:24;;;;;;;9.60;4.00;;;;;;;4.84;100.00;102533.47;5027400;28;20536;-74
2023/05/04 02:21:51;;;;;;;9.88;3.80;;;;;;;4.84;100.00;102529.97;5027447;28;20032;-73
2023/05/04 02:24:16;;;;;;;6.35;4.00;;;;;;;4.83;100.00;102530.84;5026069;28;20045;-73
2023/05/04 02:26:42;;;;;;;8.13;3.95;;;;;;;4.83;100.00;102536.09;5026739;28;20593;-74
2023/05/04 02:29:07;;;;;;;6.70;4.18;;;;;;;4.82;100.00;102534.34;5028114;28;21009;-73
2023/05/04 02:31:33;;;;;;;9.00;4.75;;;;;;;4.81;100.00;102533.47;5026461;28;20044;-73
2023/05/04 02:33:59;;;;;;;9.80;4.60;;;;;;;4.81;100.00;102524.72;5024081;28;20467;-73
2023/05/04 02:36:25;;;;;;;8.30;3.72;;;;;;;4.81;100.00;102522.09;5026698;28;20032;-73
2023/05/04 02:38:50;;;;;;;8.10;4.03;;;;;;;4.80;100.00;102523.81;5028332;28;20123;-73
2023/05/04 02:41:16;;;;;;;10.93;4.45;;;;;;;4.79;100.00;102514.19;5023559;28;20033;-73
2023/05/04 02:43:41;;;;;;;10.85;4.63;;;;;;;4.80;100.00;102515.94;5028042;28;20304;-73
2023/05/04 02:46:07;;;;;;;11.77;4.05;;;;;;;4.81;100.00;102514.22;5027454;28;20087;-73
2023/05/04 02:48:32;;;;;;;9.88;5.00;;;;;;;4.80;100.00;102509.84;5027664;28;20044;-73
2023/05/04 02:50:58;;;;;;;7.55;4.07;;;;;;;4.80;100.00;102513.31;5027245;28;20106;-74
2023/05/04 02:53:24;;;;;;;9.88;4.10;;;;;;;4.81;100.00;102508.97;5028121;28;20063;-74
2023/05/04 02:55:49;;;;;;;13.63;4.78;;;;;;;4.82;100.00;102511.63;5027694;28;20033;-74
2023/05/04 02:58:14;;;;;;;8.88;4.55;;;;;;;4.82;100.00;102508.09;5026773;28;20038;-74
2023/05/04 03:00:40;;;;;;;9.05;4.38;;;;;;;4.82;100.00;102502.84;5022631;28;20044;-73
2023/05/04 03:03:06;;;;;;;11.43;4.85;;;;;;;4.83;100.00;102494.09;5025259;28;20672;-74
2023/05/04 03:05:31;;;;;;;9.73;4.38;;;;;;;4.84;100.00;102499.38;5026907;28;20083;-74
2023/05/04 03:07:57;;;;;;;12.73;4.57;;;;;;;4.83;100.00;102492.38;5022886;28;20033;-74
2023/05/04 03:10:22;;;;;;;10.88;4.78;;;;;;;4.86;100.00;102495.00;5025022;28;20037;-74
2023/05/04 03:12:48;;;;;;;11.57;4.78;;;;;;;4.88;100.00;102492.38;5026686;28;20041;-73
2023/05/04 03:15:13;;;;;;;12.77;4.43;;;;;;;4.89;100.00;102486.25;5026054;28;20033;-74
2023/05/04 03:17:39;;;;;;;8.30;4.57;;;;;;;4.89;100.00;102483.63;5027080;28;20036;-74
2023/05/04 03:20:05;;;;;;;7.80;4.32;;;;;;;4.89;100.00;102473.13;5027939;28;20037;-74
2023/05/04 03:22:31;;;;;;;8.07;4.50;;;;;;;4.89;100.00;102467.88;5025008;28;20098;-74
2023/05/04 03:24:56;;;;;;;9.80;4.28;;;;;;;4.89;100.00;102460.91;5027470;28;20736;-74
2023/05/04 03:27:22;;;;;;;9.52;4.82;;;;;;;4.89;100.00;102462.63;5027469;28;20489;-74
2023/05/04 03:29:47;;;;;;;13.55;4.60;;;;;;;4.87;100.00;102469.63;5026876;28;20479;-74
2023/05/04 03:32:13;;;;;;;12.68;5.28;;;;;;;4.88;100.00;102463.50;5026297;28;20063;-74
2023/05/04 03:34:38;;;;;;;12.15;4.85;;;;;;;4.88;100.00;102467.03;5024966;28;20894;-74
2023/05/04 03:37:04;;;;;;;10.02;4.90;;;;;;;4.89;100.00;102475.75;5027351;28;20638;-74
2023/05/04 03:39:30;;;;;;;14.50;5.20;;;;;;;4.87;100.00;102477.50;5026420;28;20049;-74
2023/05/04 03:41:56;;;;;;;8.65;4.82;;;;;;;4.86;100.00;102487.13;5026445;28;20043;-74
2023/05/04 03:44:21;;;;;;;10.15;5.32;;;;;;;4.88;100.00;102474.00;5027236;28;20037;-74
2023/05/04 03:46:47;;;;;;;9.45;4.75;;;;;;;4.86;100.00;102467.88;5027435;28;20049;-74
2023/05/04 03:49:13;;;;;;;7.97;4.75;;;;;;;4.87;100.00;102481.03;5025113;28;20029;-74
2023/05/04 03:51:38;;;;;;;10.40;4.53;;;;;;;4.85;100.00;102471.38;5025928;28;20044;-74
2023/05/04 03:54:03;;;;;;;9.75;4.90;;;;;;;4.84;100.00;102466.97;5025458;28;20506;-74
2023/05/04 03:56:29;;;;;;;10.52;4.82;;;;;;;4.85;100.00;102460.88;5026142;28;20052;-74
2023/05/04 03:58:54;;;;;;;13.27;5.40;;;;;;;4.84;100.00;102459.09;5024817;28;20083;-73
2023/05/04 04:01:20;;;;;;;12.15;4.90;;;;;;;4.84;100.00;102464.34;5024797;28;20050;-72
2023/05/04 04:03:45;;;;;;;11.63;4.78;;;;;;;4.83;100.00;102458.25;5025986;28;20564;-72
2023/05/04 04:06:12;;;;;;;11.20;4.50;;;;;;;4.84;100.00;102456.47;5025876;28;20159;-72
2023/05/04 04:08:37;;;;;;;10.45;4.80;;;;;;;4.84;100.00;102443.34;5008046;28;20160;-72
2023/05/04 04:11:03;;;;;;;10.02;4.93;;;;;;;4.85;100.00;102445.13;5026889;28;20059;-74
2023/05/04 04:13:29;;;;;;;10.77;4.93;;;;;;;4.87;100.00;102438.13;5023737;28;20551;-74
2023/05/04 04:15:54;;;;;;;9.13;4.55;;;;;;;4.88;100.00;102435.53;5025111;28;20049;-74
2023/05/04 04:18:21;;;;;;;9.27;4.72;;;;;;;4.89;100.00;102437.28;5026588;28;20036;-74
2023/05/04 04:20:47;;;;;;;8.77;4.95;;;;;;;4.90;100.00;102443.38;5025167;28;20286;-74
2023/05/04 04:23:12;;;;;;;10.18;4.55;;;;;;;4.91;100.00;102444.28;5025232;28;20593;-74
2023/05/04 04:25:38;;;;;;;10.25;4.70;;;;;;;4.90;100.00;102443.38;5026101;28;20952;-74
2023/05/04 04:28:03;;;;;;;8.07;4.78;;;;;;;4.92;100.00;102449.53;5025053;28;20052;-74
2023/05/04 04:30:29;;;;;;;10.30;4.80;;;;;;;4.92;100.00;102446.03;5009103;28;20829;-74
2023/05/04 04:32:56;;;;;;;10.30;5.13;;;;;;;4.94;100.00;102450.41;5025203;28;20065;-74
2023/05/04 04:35:25;;;;;;;7.63;4.32;;;;;;;4.95;100.00;102446.91;5025673;28;20526;-73
2023/05/04 04:37:51;;;;;;;8.88;4.25;;;;;;;4.95;100.00;102446.06;5023993;28;20098;-73
2023/05/04 04:40:17;;;;;;;8.50;4.38;;;;;;;4.94;100.00;102434.66;5025178;28;21635;-73
2023/05/04 04:42:42;;;;;;;9.93;5.07;;;;;;;4.95;100.00;102435.56;5024985;28;20060;-73
2023/05/04 04:45:08;;;;;;;11.82;4.93;;;;;;;4.96;100.00;102443.41;5022806;28;20127;-73
2023/05/04 04:47:33;;;;;;;8.95;4.38;;;;;;;4.96;100.00;102448.66;5021814;28;20067;-73
2023/05/04 04:49:59;;;;;;;13.70;5.20;;;;;;;4.96;100.00;102437.31;5025598;28;20037;-73
2023/05/04 04:52:25;;;;;;;11.02;4.90;;;;;;;4.96;100.00;102432.91;5020075;28;20073;-73
2023/05/04 04:54:50;;;;;;;12.07;4.93;;;;;;;4.99;100.00;102437.31;5023827;28;20047;-72
2023/05/04 04:57:16;;;;;;;10.15;4.70;;;;;;;4.98;100.00;102419.81;5025436;28;20113;-72
2023/05/04 04:59:42;;;;;;;11.93;4.75;;;;;;;4.98;100.00;102431.19;5026128;28;20116;-73
2023/05/04 05:02:08;;;;;;;10.18;5.10;;;;;;;4.99;100.00;102432.06;5024273;28;20049;-73
2023/05/04 05:04:35;;;;;;;11.73;4.97;;;;;;;5.02;100.00;102435.56;5023407;28;20705;-73
2023/05/04 05:07:00;;;;;;;9.30;4.85;;;;;;;5.04;100.00;102435.56;5026781;28;20095;-73
2023/05/04 05:09:26;;;;;;;11.98;4.95;;;;;;;5.07;100.00;102435.56;5027310;28;20626;-73
2023/05/04 05:11:51;;;;;;;8.35;4.85;;;;;;;5.10;100.00;102434.72;5028014;28;20578;-73
2023/05/04 05:14:17;;;;;;;8.50;4.93;;;;;;;5.13;100.00;102429.50;5022894;28;20535;-72
2023/05/04 05:16:42;;;;;;;10.38;4.72;;;;;;;5.15;100.00;102422.47;5029599;28;20419;-73
2023/05/04 05:19:08;;;;;;;9.60;4.80;;;;;;;5.20;100.00;102420.75;5030162;28;20444;-73
2023/05/04 05:21:33;;;;;;;10.80;5.53;;;;;;;5.26;100.00;102428.66;5028784;28;20045;-73
2023/05/04 05:24:00;;;;;;;9.88;5.07;;;;;;;5.30;100.00;102435.63;5029515;28;20063;-73
2023/05/04 05:26:26;;;;;;;12.02;4.70;;;;;;;5.36;100.00;102428.66;5028650;28;20029;-72
2023/05/04 05:28:51;;;;;;;9.20;4.63;;;;;;;5.43;100.00;102433.94;5028603;28;20536;-73
2023/05/04 05:31:17;;;;;;;8.85;5.03;;;;;;;5.49;100.00;102430.44;5027929;28;20693;-72
2023/05/04 05:33:42;;;;;;;9.77;4.90;;;;;;;5.55;100.00;102425.19;5027067;28;20139;-73
2023/05/04 05:36:08;;;;;;;11.23;5.03;;;;;;;5.62;100.00;102433.06;5027282;28;20045;-73
2023/05/04 05:38:34;;;;;;;10.20;4.53;;;;;;;5.69;100.00;102426.94;5027338;28;21477;-73
2023/05/04 05:41:00;;;;;;;8.93;4.68;;;;;;;5.74;100.00;102426.94;5027958;28;20120;-74
2023/05/04 05:43:25;;;;;;;8.52;4.32;;;;;;;5.80;100.00;102432.19;5028923;28;20036;-73
2023/05/04 05:45:51;;;;;;;9.35;4.45;;;;;;;5.85;100.00;102436.56;5026110;28;20779;-73
2023/05/04 05:48:16;;;;;;;11.82;4.78;;;;;;;5.93;100.00;102433.06;5028184;28;20044;-73
2023/05/04 05:50:42;;;;;;;8.02;4.93;;;;;;;6.00;100.00;102423.44;5029436;28;20045;-73
2023/05/04 05:53:08;;;;;;;7.47;4.63;;;;;;;6.07;100.00;102426.09;5028357;28;20488;-73
2023/05/04 05:55:33;;;;;;;7.75;4.88;;;;;;;6.13;100.00;102427.84;5027628;28;20037;-73
2023/05/04 05:57:59;;;;;;;8.65;4.85;;;;;;;6.20;100.00;102420.78;5028069;28;20033;-73
2023/05/04 06:00:24;;;;;;;9.48;4.85;;;;;;;6.27;100.00;102419.94;5027895;28;20029;-73
2023/05/04 06:02:51;;;;;;;8.80;4.68;;;;;;;6.29;100.00;102412.91;5028793;28;20029;-74
2023/05/04 06:05:16;;;;;;;9.23;4.40;;;;;;;6.37;100.00;102410.22;5027521;28;20607;-73
2023/05/04 06:07:42;;;;;;;10.65;4.35;;;;;;;6.43;100.00;102401.47;5027742;28;20136;-73
2023/05/04 06:10:08;;;;;;;9.52;4.78;;;;;;;6.47;100.00;102405.81;5027571;28;20045;-73
2023/05/04 06:12:34;;;;;;;8.75;4.35;;;;;;;6.54;100.00;102404.91;5011668;28;20045;-73
2023/05/04 06:14:59;;;;;;;8.02;4.32;;;;;;;6.60;100.00;102397.00;5010678;28;20065;-74
2023/05/04 06:17:25;;;;;;;14.18;4.25;;;;;;;6.60;100.00;102394.38;5027729;28;20033;-74
2023/05/04 06:19:50;;;;;;;8.70;4.97;;;;;;;6.62;100.00;102392.63;5028052;28;20496;-74
2023/05/04 06:22:16;;;;;;;10.55;4.70;;;;;;;6.71;100.00;102390.84;5029087;28;20041;-74
2023/05/04 06:24:42;;;;;;;8.98;4.50;;;;;;;6.81;100.00;102399.56;5028535;28;20037;-74
2023/05/04 06:27:07;;;;;;;10.00;4.75;;;;;;;6.87;100.00;102389.88;5027238;28;20040;-73
2023/05/04 06:29:33;;;;;;;8.90;4.15;;;;;;;6.91;100.00;102402.16;5026569;28;20036;-74
2023/05/04 06:31:59;;;;;;;10.85;4.93;;;;;;;7.03;100.00;102392.44;5028009;28;20036;-73
2023/05/04 06:34:25;;;;;;;6.07;4.13;;;;;;;7.11;100.00;102388.00;5027816;28;20423;-73
2023/05/04 06:36:50;;;;;;;8.82;4.38;;;;;;;7.21;100.00;102388.81;5027771;28;20041;-74
2023/05/04 06:39:15;;;;;;;8.82;4.68;;;;;;;7.28;100.00;102395.78;5025446;28;20607;-73
2023/05/04 06:41:41;;;;;;;6.75;4.22;;;;;;;7.40;100.00;102383.41;5026980;28;20088;-73
2023/05/04 06:44:07;;;;;;;9.20;4.80;;;;;;;7.46;100.00;102376.31;5023787;28;20033;-73
2023/05/04 06:46:34;;;;;;;10.73;5.05;;;;;;;7.53;100.00;102376.28;5021705;28;20044;-73
2023/05/04 06:48:59;;;;;;;8.88;4.53;;;;;;;7.56;100.00;102373.59;5026484;28;20037;-74
2023/05/04 06:51:24;;;;;;;8.20;4.50;;;;;;;7.61;100.00;102364.78;5024856;28;20666;-73
2023/05/04 06:53:50;;;;;;;7.00;4.25;;;;;;;7.74;100.00;102364.69;5025314;28;20043;-73
2023/05/04 06:56:16;;;;;;;10.82;4.75;;;;;;;7.84;100.00;102370.75;5026870;28;20037;-73
2023/05/04 06:58:41;;;;;;;10.43;5.10;;;;;;;7.90;100.00;102361.91;5026912;28;20037;-73
2023/05/04 07:01:10;;;;;;;9.57;4.68;;;;;;;8.01;100.00;102358.25;5007605;28;20041;-73
2023/05/04 07:03:36;;;;;;;10.20;4.63;;;;;;;8.18;100.00;102357.22;5026609;28;20415;-73
2023/05/04 07:06:02;;;;;;;8.77;4.68;;;;;;;8.32;100.00;102357.03;5026297;28;20029;-73
2023/05/04 07:08:28;;;;;;;7.55;4.65;;;;;;;8.50;100.00;102355.09;5026358;28;20036;-73
2023/05/04 07:10:53;;;;;;;8.25;5.05;;;;;;;8.62;100.00;102356.72;5025950;28;20121;-73
2023/05/04 07:13:19;;;;;;;10.07;4.93;;;;;;;8.71;100.00;102359.22;5025891;28;20043;-73
2023/05/04 07:15:45;;;;;;;9.63;4.85;;;;;;;8.79;100.00;102343.28;5026663;28;20135;-73
2023/05/04 07:18:10;;;;;;;7.35;4.50;;;;;;;8.95;100.00;102343.94;5026291;28;20045;-74
2023/05/04 07:20:36;;;;;;;9.43;4.82;;;;;;;9.04;100.00;102343.81;5025168;28;20041;-72
2023/05/04 07:23:02;;;;;;;8.50;4.97;;;;;;;9.20;100.00;102341.81;5021372;28;20041;-72
2023/05/04 07:25:28;;;;;;;6.97;4.60;;;;;;;9.33;100.00;102349.53;5019411;28;20040;-73
2023/05/04 07:27:53;;;;;;;8.80;4.90;;;;;;;9.40;100.00;102337.97;5022480;28;20048;-72
2023/05/04 07:30:20;;;;;;;10.35;4.68;;;;;;;9.53;100.00;102337.75;5026118;28;20064;-73
2023/05/04 07:32:46;;;;;;;7.35;4.75;;;;;;;9.57;100.00;102339.44;5026547;28;20032;-72
2023/05/04 07:35:12;;;;;;;9.60;4.47;;;;;;;9.55;100.00;102342.13;5025753;28;20060;-72
2023/05/04 07:37:37;;;;;;;9.05;4.38;;;;;;;9.58;100.00;102331.47;5026922;28;20413;-73
2023/05/04 07:40:04;;;;;;;6.50;4.32;;;;;;;9.67;100.00;102332.22;5024387;28;20989;-73
2023/05/04 07:42:31;;;;;;;8.25;4.28;;;;;;;9.80;100.00;102331.09;5024918;28;20037;-73
2023/05/04 07:44:57;;;;;;;7.28;4.55;;;;;;;9.90;100.00;102319.47;5022705;28;20118;-73
2023/05/04 07:47:22;;;;;;;8.93;4.95;;;;;;;9.96;100.00;102320.25;5022902;28;20035;-73
2023/05/04 07:49:48;;;;;;;9.02;4.20;;;;;;;10.02;100.00;102309.56;5026736;28;20648;-73
2023/05/04 07:52:13;;;;;;;6.53;4.28;;;;;;;10.07;100.00;102312.09;4995879;28;20060;-73
2023/05/04 07:54:39;;;;;;;7.25;4.22;;;;;;;10.07;100.00;102310.31;5024211;28;20032;-73
2023/05/04 07:57:05;;;;;;;8.75;4.43;;;;;;;10.15;100.00;102305.72;5026068;28;20032;-73
2023/05/04 07:59:30;;;;;;;7.15;4.60;;;;;;;10.19;100.00;102304.78;5024960;28;20176;-73
2023/05/04 08:01:56;;;;;;;9.75;4.45;;;;;;;10.30;100.00;102303.69;5025799;28;20037;-73
2023/05/04 08:04:21;;;;;;;7.88;4.10;;;;;;;10.37;100.00;102305.31;5026767;28;20061;-73
2023/05/04 08:06:48;;;;;;;8.10;4.28;;;;;;;10.38;100.00;102304.41;5009092;28;20048;-72
2023/05/04 08:09:18;;;;;;;7.95;4.78;;;;;;;10.49;100.00;102301.53;5025433;28;20041;-72
2023/05/04 08:11:45;;;;;;;10.57;4.75;;;;;;;10.51;100.00;102298.88;5025461;28;20064;-73
2023/05/04 08:14:10;;;;;;;9.02;4.78;;;;;;;10.50;100.00;102305.06;5024965;28;20132;-72
2023/05/04 08:16:36;;;;;;;12.98;4.63;;;;;;;10.56;100.00;102295.22;5026539;28;20040;-72
2023/05/04 08:19:01;;;;;;;8.68;4.70;;;;;;;10.54;100.00;102296.13;5026722;28;20156;-72
2023/05/04 08:21:27;;;;;;;11.68;4.65;;;;;;;10.57;100.00;102290.78;5025260;28;20037;-72
2023/05/04 08:23:53;;;;;;;10.48;4.60;;;;;;;10.66;100.00;102287.94;5026110;28;20039;-72
2023/05/04 08:26:18;;;;;;;6.40;4.00;;;;;;;10.73;100.00;102286.00;5025893;28;20403;-72
2023/05/04 08:28:47;;;;;;;8.05;4.13;;;;;;;10.80;100.00;102281.44;5022570;28;20040;-71
2023/05/04 08:31:17;;;;;;;9.20;4.53;;;;;;;10.82;100.00;102282.25;5021179;28;20068;-72
2023/05/04 08:33:43;;;;;;;7.18;4.32;;;;;;;10.83;100.00;102284.00;5024223;28;20111;-72
2023/05/04 08:36:08;;;;;;;6.72;4.20;;;;;;;10.91;100.00;102279.41;5024548;28;20071;-73
2023/05/04 08:38:34;;;;;;;7.22;3.58;;;;;;;11.02;100.00;102280.91;5024154;28;20484;-72
2023/05/04 08:41:03;;;;;;;5.63;4.00;;;;;;;11.14;100.00;102268.25;5027964;28;20191;-72
2023/05/04 08:43:30;;;;;;;6.38;4.00;;;;;;;11.37;100.00;102271.19;5027473;28;20041;-72
2023/05/04 08:45:55;;;;;;;12.52;4.40;;;;;;;11.62;100.00;102270.56;5028950;28;20104;-73
2023/05/04 08:48:21;;;;;;;6.20;3.97;;;;;;;11.78;100.00;102261.25;5030093;28;20082;-72
2023/05/04 08:50:47;;;;;;;8.90;3.80;;;;;;;11.88;100.00;102263.66;5011579;28;20412;-73
2023/05/04 08:53:13;;;;;;;7.38;3.97;;;;;;;12.07;100.00;102256.97;5029815;28;20066;-73
2023/05/04 08:55:41;;;;;;;8.07;4.35;;;;;;;12.22;100.00;102250.28;5006480;28;20033;-73
2023/05/04 08:58:10;;;;;;;8.13;4.07;;;;;;;12.40;100.00;102255.09;5024511;28;20075;-72
2023/05/04 09:00:37;;;;;;;8.13;3.55;;;;;;;12.63;99.71;102255.25;5029507;28;20189;-72
2023/05/04 09:03:03;;;;;;;7.65;3.80;;;;;;;12.81;98.21;102258.22;5027815;28;20597;-72
2023/05/04 09:05:29;;;;;;;5.18;3.58;;;;;;;12.97;96.05;102261.25;5029058;28;20163;-73
2023/05/04 09:07:55;;;;;;;6.43;4.10;;;;;;;13.12;97.48;102256.34;5027805;28;20034;-72
2023/05/04 09:10:20;;;;;;;5.00;3.28;;;;;;;13.36;96.75;102253.78;5027286;28;20608;-73
2023/05/04 09:12:46;;;;;;;7.13;4.10;;;;;;;13.50;97.15;102248.03;5044457;28;20923;-73
2023/05/04 09:15:16;;;;;;;5.32;3.50;;;;;;;13.60;95.23;102244.09;5028860;28;20578;-73
2023/05/04 09:17:42;;;;;;;6.47;3.67;;;;;;;13.68;96.96;102244.69;5029222;28;20041;-73
2023/05/04 09:20:08;;;;;;;6.13;3.60;;;;;;;13.77;95.80;102234.66;5029324;28;20193;-73
2023/05/04 09:22:34;;;;;;;6.60;3.83;;;;;;;13.80;95.70;102237.19;5027247;28;20238;-73
2023/05/04 09:25:10;;;;;;;6.50;3.97;;;;;;;13.70;89.88;102232.22;5026253;28;20492;-73
2023/05/04 09:27:36;;;;;;;4.90;3.35;;;;;;;13.60;93.02;102224.59;5029064;28;20485;-73
2023/05/04 09:30:02;;;;;;;9.00;3.80;;;;;;;13.66;93.73;102229.69;5011375;28;20047;-73
2023/05/04 09:32:28;;;;;;;5.35;3.65;;;;;;;13.79;95.13;102228.31;5029430;28;20041;-73
2023/05/04 09:34:54;;;;;;;5.72;3.72;;;;;;;13.93;94.41;102222.50;5027233;28;20543;-72
2023/05/04 09:37:20;;;;;;;6.20;3.63;;;;;;;14.10;94.56;102219.19;5026611;28;20110;-72
2023/05/04 09:39:54;;;;;;;6.53;3.83;;;;;;;14.18;91.40;102218.91;5026876;28;20041;-73
2023/05/04 09:42:20;;;;;;;4.88;3.85;;;;;;;14.11;89.92;102212.06;5010935;28;20729;-72
2023/05/04 09:45:03;;;;;;;6.53;4.07;;;;;;;14.17;88.30;102214.47;5028293;28;20029;-73
2023/05/04 09:47:35;;;;;;;;;;;;;;;14.23;85.45;102214.22;5028677;28;20045;-74
2023/05/04 09:50:11;;;;;;;6.25;3.42;;;;;;;14.25;87.79;102208.84;5025800;28;20394;-74
2023/05/04 09:52:39;;;;;;;6.05;3.60;;;;;;;14.32;88.86;102209.50;4988780;28;20040;-74
2023/05/04 09:55:07;;;;;;;7.97;4.03;;;;;;;14.42;87.64;102204.69;5026419;28;20475;-74
2023/05/04 09:57:33;;;;;;;7.50;3.90;;;;;;;14.38;86.71;102210.09;5024300;28;20116;-74
2023/05/04 09:59:59;;;;;;;5.15;3.60;;;;;;;14.42;86.09;102202.00;5025823;28;21280;-74
2023/05/04 10:02:24;;;;;;;6.03;3.42;;;;;;;14.47;86.65;102192.00;5026071;28;20922;-74
2023/05/04 10:04:51;;;;;;;8.00;3.70;;;;;;;14.64;85.28;102192.19;5021174;28;20039;-74
2023/05/04 10:07:16;;;;;;;6.38;3.90;;;;;;;14.78;85.39;102191.63;5023386;28;20063;-74
2023/05/04 10:09:42;;;;;;;5.68;3.25;;;;;;;14.85;83.24;102173.59;5026766;28;20079;-74
2023/05/04 10:12:07;;;;;;;6.72;4.13;;;;;;;14.78;81.03;102170.31;5025746;28;20045;-74
2023/05/04 10:14:34;;;;;;;5.88;3.60;;;;;;;14.70;82.15;102172.41;5011500;28;20451;-74
2023/05/04 10:17:40;;;;;;;6.63;3.80;;;;;;;14.69;80.51;102172.47;5025510;28;20032;-74
2023/05/04 10:20:08;;;;;;;5.78;3.85;;;;;;;14.65;82.84;102159.28;5028250;28;20043;-74
2023/05/04 10:22:33;;;;;;;7.05;3.72;;;;;;;14.65;81.44;102161.06;5038710;28;20037;-73
2023/05/04 10:25:58;;;;;;;5.60;3.53;;;;;;;14.69;79.39;102159.13;5027725;28;20515;-74
2023/05/04 10:28:37;;;;;;;5.57;3.60;;;;;;;14.68;80.11;102150.28;5008229;28;20049;-74
2023/05/04 10:31:05;;;;;;;4.60;3.75;;;;;;;14.75;80.99;102153.59;5024371;28;20039;-73
2023/05/04 10:33:40;;;;;;;4.88;3.60;;;;;;;14.77;80.04;102155.25;5026803;28;20512;-73
2023/05/04 10:36:07;;;;;;;6.35;3.45;;;;;;;14.75;81.17;102159.78;5027228;28;20055;-73
2023/05/04 10:38:34;;;;;;;7.53;3.53;;;;;;;14.80;81.00;102163.16;5026706;28;20043;-74
2023/05/04 10:41:00;;;;;;;4.80;3.50;;;;;;;14.89;81.01;102155.69;5026185;28;20049;-73
2023/05/04 10:43:27;;;;;;;4.90;3.42;;;;;;;14.91;80.84;102145.81;5027906;28;20051;-73
2023/05/04 10:45:53;;;;;;;6.78;4.20;;;;;;;14.98;80.56;102152.59;5027757;28;20037;-73
2023/05/04 10:48:19;;;;;;;5.70;3.45;;;;;;;15.11;79.92;102144.06;5026113;28;20411;-73
2023/05/04 10:50:47;;;;;;;6.45;3.50;;;;;;;15.18;80.53;102137.53;5026852;28;20800;-74
2023/05/04 10:53:14;;;;;;;4.22;3.08;;;;;;;15.28;79.49;102133.53;5028368;28;20041;-73
2023/05/04 10:55:47;;;;;;;7.88;3.67;;;;;;;15.34;77.82;102127.91;5025954;28;20041;-74
2023/05/04 10:58:15;;;;;;;7.22;3.90;;;;;;;15.27;77.63;102123.81;5027692;28;20080;-73
2023/05/04 11:00:45;;;;;;;4.78;3.35;;;;;;;15.25;78.40;102112.31;5026113;28;20035;-73
2023/05/04 11:03:11;;;;;;;4.82;3.60;;;;;;;15.28;77.99;102105.97;5026009;28;20045;-73
2023/05/04 11:05:43;;;;;;;6.45;3.55;;;;;;;15.34;77.35;102101.25;5026153;28;20389;-73
2023/05/04 11:08:23;;;;;;;6.20;3.53;;;;;;;15.44;74.72;102096.34;5022244;28;20037;-74
2023/05/04 11:11:01;;;;;;;7.65;3.85;;;;;;;15.47;74.43;102085.50;5026130;28;20094;-74
2023/05/04 11:13:28;;;;;;;5.07;3.30;;;;;;;15.48;74.18;102089.06;5025196;28;20041;-74
2023/05/04 11:15:54;;;;;;;5.43;3.70;;;;;;;15.37;74.33;102078.88;5025730;28;20509;-74
2023/05/04 11:18:31;;;;;;;6.53;3.30;;;;;;;15.36;74.98;102074.47;5025797;28;20060;-73